Andrews Bridge, Pennsylvania
Current Conditions -  °F | °C
As of 3:15 PM on Friday 21 Nov 2014 (Local Time) from KMQS Reporting Station
Clear Clear  
Wind Chill: -6°   Ceiling: Unl
Heat Index:   Visibility: 10mi
Dew Point: -13°   Wind: 16mph
Humidity: 38%   Direction: 310°NW
Pressure: 30.4"   Gusts: 20mph
Location:  39.9118°N, 76.0265°W
Report Text: KMQS 212015Z AUTO 31014G17KT 10SM CLR 00/M13 A3040 RMK AO2
Loading
Personal Weather Stations






























Interactive Weather Map New forecast layout! Learn more

10-Day Weather Forecast

Advertisements
Track Severe Weather on mobile